createdAt,value
2019-02-05T00:01:38.503Z,7.20
2019-02-05T00:04:08.102Z,10.33
2019-02-05T00:06:37.923Z,9.33
2019-02-05T00:09:13.598Z,9.57
2019-02-05T00:11:43.063Z,10.17
2019-02-05T00:14:12.542Z,13.40
2019-02-05T00:16:42.408Z,9.10
2019-02-05T00:19:12.649Z,8.10
2019-02-05T00:21:42.115Z,8.53
2019-02-05T00:24:11.540Z,11.73
2019-02-05T00:26:41.013Z,11.73
2019-02-05T00:29:10.407Z,9.00
2019-02-05T00:31:40.290Z,10.57
2019-02-05T00:34:09.753Z,9.93
2019-02-05T00:36:39.153Z,9.57
2019-02-05T00:39:09.232Z,9.40
2019-02-05T00:41:38.703Z,13.30
2019-02-05T00:44:08.106Z,8.53
2019-02-05T00:46:37.508Z,8.83
2019-02-05T00:49:07.046Z,9.87
2019-02-05T00:51:36.458Z,9.23
2019-02-05T00:54:06.458Z,11.43
2019-02-05T00:56:35.986Z,7.87
2019-02-05T00:59:05.633Z,7.30
2019-02-05T01:01:35.234Z,7.63
2019-02-05T01:04:05.502Z,8.73
2019-02-05T01:06:34.990Z,7.67
2019-02-05T01:09:07.642Z,8.87
2019-02-05T01:11:39.512Z,7.67
2019-02-05T01:14:08.986Z,7.87
2019-02-05T01:16:38.374Z,8.93
2019-02-05T01:19:07.843Z,7.63
2019-02-05T01:21:37.249Z,7.23
2019-02-05T01:24:06.723Z,7.13
2019-02-05T01:26:36.127Z,9.73
2019-02-05T01:29:05.684Z,9.87
2019-02-05T01:31:35.073Z,8.53
2019-02-05T01:34:04.842Z,8.07
2019-02-05T01:36:34.254Z,7.43
2019-02-05T01:39:04.702Z,8.37
2019-02-05T01:41:34.474Z,8.23
2019-02-05T01:44:04.072Z,8.30
2019-02-05T01:46:33.469Z,7.90
2019-02-05T01:49:02.957Z,7.83
2019-02-05T01:51:32.345Z,11.13
2019-02-05T01:54:01.741Z,8.67
2019-02-05T01:56:40.374Z,8.47
2019-02-05T01:59:02.545Z,11.17
2019-02-05T02:01:32.141Z,6.90
2019-02-05T02:04:01.528Z,9.43
2019-02-05T02:06:31.011Z,7.13
2019-02-05T02:09:00.413Z,8.00
2019-02-05T02:11:30.050Z,9.03
2019-02-05T02:13:59.431Z,6.70
2019-02-05T02:16:28.996Z,9.17
2019-02-05T02:18:58.379Z,8.33
2019-02-05T02:21:27.766Z,7.40
2019-02-05T02:23:57.185Z,8.57
2019-02-05T02:26:26.661Z,8.20
2019-02-05T02:28:56.067Z,9.27
2019-02-05T02:31:25.625Z,8.07
2019-02-05T02:33:55.082Z,6.77
2019-02-05T02:36:24.568Z,8.23
2019-02-05T02:38:53.971Z,7.53
2019-02-05T02:41:23.666Z,8.30
2019-02-05T02:43:53.061Z,8.43
2019-02-05T02:46:22.534Z,7.03
2019-02-05T02:48:51.990Z,7.00
2019-02-05T02:51:21.466Z,8.97
2019-02-05T02:53:50.939Z,8.90
2019-02-05T02:56:20.745Z,9.73
2019-02-05T02:58:50.409Z,9.77
2019-02-05T03:01:19.882Z,6.93
2019-02-05T03:03:49.269Z,7.03
2019-02-05T03:06:18.828Z,8.20
2019-02-05T03:08:48.211Z,8.30
2019-02-05T03:11:18.075Z,6.20
2019-02-05T03:13:47.536Z,5.27
2019-02-05T03:16:16.999Z,9.13
2019-02-05T03:18:46.450Z,10.83
2019-02-05T03:21:15.951Z,8.07
2019-02-05T03:23:45.416Z,7.67
2019-02-05T03:26:14.921Z,8.10
2019-02-05T03:28:44.613Z,8.90
2019-02-05T03:31:14.177Z,6.93
2019-02-05T03:33:43.644Z,7.93
2019-02-05T03:36:13.169Z,7.53
2019-02-05T03:38:42.649Z,12.40
2019-02-05T03:41:12.046Z,5.87
2019-02-05T03:43:42.240Z,7.17
2019-02-05T03:46:16.715Z,9.50
2019-02-05T03:48:47.901Z,10.77
2019-02-05T03:51:44.910Z,8.47
2019-02-05T03:54:55.589Z,8.37
2019-02-05T03:57:57.238Z,6.50
2019-02-05T04:01:23.270Z,10.40
2019-02-05T04:04:36.076Z,7.13
2019-02-05T04:07:54.890Z,5.50
2019-02-05T04:11:00.488Z,9.27
2019-02-05T04:14:06.445Z,5.73
2019-02-05T04:16:50.613Z,7.40
2019-02-05T04:19:50.231Z,8.77
2019-02-05T04:23:02.342Z,7.87
2019-02-05T04:26:03.970Z,5.90
2019-02-05T04:28:47.490Z,7.40
2019-02-05T04:31:25.140Z,9.63
2019-02-05T04:34:10.708Z,7.27
2019-02-05T04:37:26.634Z,5.03
2019-02-05T04:40:55.718Z,7.90
2019-02-05T04:43:39.647Z,7.03
2019-02-05T04:46:40.682Z,6.87
2019-02-05T04:49:36.114Z,6.60
2019-02-05T04:52:26.746Z,7.77
2019-02-05T04:55:09.522Z,9.10
2019-02-05T04:58:08.830Z,7.30
2019-02-05T05:01:06.166Z,7.63
2019-02-05T05:03:46.648Z,8.03
2019-02-05T05:06:56.574Z,10.50
2019-02-05T05:09:38.189Z,8.20
2019-02-05T05:12:07.627Z,5.93
2019-02-05T05:14:37.154Z,6.47
2019-02-05T05:17:06.618Z,9.33
2019-02-05T05:19:36.154Z,6.73
2019-02-05T05:22:06.335Z,11.73
2019-02-05T05:24:36.185Z,9.23
2019-02-05T05:27:06.177Z,8.57
2019-02-05T05:29:35.821Z,7.83
2019-02-05T05:32:05.991Z,10.80
2019-02-05T05:34:35.582Z,12.20
2019-02-05T05:37:03.867Z,20.10
2019-02-05T05:39:33.439Z,13.60
2019-02-05T05:42:03.004Z,10.23
2019-02-05T05:44:32.562Z,10.67
2019-02-05T05:47:02.133Z,7.77
2019-02-05T05:49:31.521Z,9.30
2019-02-05T05:52:00.909Z,11.67
2019-02-05T05:54:30.432Z,9.77
2019-02-05T05:56:59.945Z,10.27
2019-02-05T05:59:29.423Z,13.63
2019-02-05T06:01:58.810Z,10.90
2019-02-05T06:04:28.219Z,9.27
2019-02-05T06:06:57.695Z,8.60
2019-02-05T06:09:27.114Z,11.37
2019-02-05T06:11:56.536Z,9.63
2019-02-05T06:14:26.002Z,8.47
2019-02-05T06:16:55.508Z,8.77
2019-02-05T06:19:25.483Z,8.73
2019-02-05T06:21:55.040Z,10.23
2019-02-05T06:24:24.469Z,9.43
2019-02-05T06:26:53.941Z,7.93
2019-02-05T06:29:23.539Z,8.37
2019-02-05T06:31:53.088Z,9.00
2019-02-05T06:34:22.946Z,8.53
2019-02-05T06:36:52.419Z,10.60
2019-02-05T06:39:21.885Z,9.57
2019-02-05T06:41:51.436Z,10.03
2019-02-05T06:44:20.945Z,8.17
2019-02-05T06:46:50.358Z,9.80
2019-02-05T06:49:19.765Z,7.60
2019-02-05T06:51:49.241Z,9.77
2019-02-05T06:54:18.707Z,6.37
2019-02-05T06:56:48.097Z,7.97
2019-02-05T06:59:17.509Z,7.10
2019-02-05T07:01:47.027Z,8.37
2019-02-05T07:04:16.595Z,6.53
2019-02-05T07:06:46.389Z,10.60
2019-02-05T07:09:15.871Z,6.97
2019-02-05T07:11:45.327Z,9.23
2019-02-05T07:14:14.733Z,11.13
2019-02-05T07:16:44.168Z,8.97
2019-02-05T07:19:13.678Z,7.03
2019-02-05T07:21:43.712Z,8.87
2019-02-05T07:24:13.276Z,7.47
2019-02-05T07:26:42.819Z,9.80
2019-02-05T07:29:12.469Z,11.17
2019-02-05T07:31:42.032Z,9.43
2019-02-05T07:34:11.567Z,9.53
2019-02-05T07:36:41.095Z,9.27
2019-02-05T07:39:10.868Z,8.23
2019-02-05T07:41:40.579Z,9.93
2019-02-05T07:44:10.255Z,9.40
2019-02-05T07:46:39.734Z,8.77
2019-02-05T07:49:09.145Z,7.00
2019-02-05T07:51:38.691Z,7.67
2019-02-05T07:54:08.199Z,9.50
2019-02-05T07:56:38.138Z,8.13
2019-02-05T07:59:10.395Z,7.43
2019-02-05T08:01:38.944Z,7.37
2019-02-05T08:04:08.766Z,7.07
2019-02-05T08:06:38.294Z,9.10
2019-02-05T08:09:10.347Z,12.63
2019-02-05T08:11:41.409Z,9.30
2019-02-05T08:14:11.149Z,8.83
2019-02-05T08:16:40.682Z,10.60
2019-02-05T08:19:10.254Z,10.47
2019-02-05T08:21:39.934Z,8.20
2019-02-05T08:24:09.410Z,9.23
2019-02-05T08:26:38.906Z,8.20
2019-02-05T08:29:08.720Z,9.77
2019-02-05T08:31:38.203Z,8.40
2019-02-05T08:34:07.814Z,9.93
2019-02-05T08:36:37.325Z,7.57
2019-02-05T08:39:09.334Z,9.27
2019-02-05T08:41:38.807Z,9.70
2019-02-05T08:44:08.347Z,8.77
2019-02-05T08:46:37.868Z,7.70
2019-02-05T08:49:07.433Z,8.83
2019-02-05T08:51:36.967Z,8.80
2019-02-05T08:54:06.635Z,9.23
2019-02-05T08:56:36.236Z,9.57
2019-02-05T08:59:06.295Z,10.90
2019-02-05T09:01:36.109Z,8.40
2019-02-05T09:04:05.825Z,7.63
2019-02-05T09:06:35.550Z,8.13
2019-02-05T09:09:08.309Z,9.80
2019-02-05T09:11:37.923Z,8.67
2019-02-05T09:14:10.672Z,12.87
2019-02-05T09:16:38.602Z,8.73
2019-02-05T09:19:08.077Z,12.93
2019-02-05T09:21:37.606Z,12.23
2019-02-05T09:24:07.158Z,11.03
2019-02-05T09:26:36.714Z,9.70
2019-02-05T09:29:06.383Z,9.87
2019-02-05T09:31:35.886Z,9.43
2019-02-05T09:34:05.693Z,14.10
2019-02-05T09:36:35.238Z,11.83
2019-02-05T09:39:07.530Z,8.53
2019-02-05T09:41:37.100Z,9.93
2019-02-05T09:44:06.730Z,9.37
2019-02-05T09:46:36.350Z,10.53
2019-02-05T09:49:06.284Z,9.60
2019-02-05T09:51:35.824Z,10.60
2019-02-05T09:54:05.758Z,10.00
2019-02-05T09:56:35.251Z,10.03
2019-02-05T09:59:04.885Z,10.30
2019-02-05T10:01:34.639Z,12.20
2019-02-05T10:04:04.649Z,10.90
2019-02-05T10:06:34.210Z,13.60
2019-02-05T10:09:05.812Z,12.70
2019-02-05T10:11:35.309Z,9.80
2019-02-05T10:14:04.915Z,10.50
2019-02-05T10:16:34.420Z,10.67
2019-02-05T10:19:04.179Z,9.27
2019-02-05T10:21:33.725Z,11.03
2019-02-05T10:24:03.280Z,12.00
2019-02-05T10:26:32.967Z,10.37
2019-02-05T10:29:02.595Z,11.87
2019-02-05T10:31:32.122Z,17.87
2019-02-05T10:34:01.711Z,13.83
2019-02-05T10:36:31.574Z,11.87
2019-02-05T10:39:01.121Z,13.53
2019-02-05T10:41:30.659Z,10.77
2019-02-05T10:44:00.250Z,15.17
2019-02-05T10:46:29.833Z,11.67
2019-02-05T10:48:59.266Z,12.40
2019-02-05T10:51:28.725Z,12.13
2019-02-05T10:53:58.316Z,15.40
2019-02-05T10:56:27.873Z,11.93
2019-02-05T10:58:57.345Z,11.90
2019-02-05T11:01:26.798Z,12.60
2019-02-05T11:03:56.281Z,11.67
2019-02-05T11:06:25.757Z,19.47
2019-02-05T11:08:55.552Z,14.43
2019-02-05T11:11:24.946Z,14.50
2019-02-05T11:13:54.572Z,16.67
2019-02-05T11:16:24.084Z,15.07
2019-02-05T11:18:53.551Z,14.57
2019-02-05T11:21:23.033Z,14.37
2019-02-05T11:23:52.674Z,13.10
2019-02-05T11:26:22.070Z,13.13
2019-02-05T11:28:51.606Z,15.20
2019-02-05T11:31:21.097Z,13.33
2019-02-05T11:33:50.598Z,15.77
2019-02-05T11:36:20.088Z,15.63
2019-02-05T11:38:49.552Z,15.37
2019-02-05T11:41:19.477Z,19.40
2019-02-05T11:43:48.939Z,15.43
2019-02-05T11:46:18.448Z,14.17
2019-02-05T11:48:47.989Z,13.83
2019-02-05T11:51:17.518Z,12.30
2019-02-05T11:53:46.990Z,16.47
2019-02-05T11:56:16.550Z,15.23
2019-02-05T11:58:46.013Z,14.63
2019-02-05T12:01:38.365Z,17.20
2019-02-05T12:04:01.213Z,14.43
2019-02-05T12:06:30.802Z,14.97
2019-02-05T12:09:00.295Z,15.27
2019-02-05T12:11:29.801Z,17.07
2019-02-05T12:13:59.357Z,17.07
2019-02-05T12:16:28.869Z,16.33
2019-02-05T12:18:58.351Z,18.43
2019-02-05T12:21:27.858Z,17.10
2019-02-05T12:23:57.320Z,19.53
2019-02-05T12:26:26.819Z,17.10
2019-02-05T12:28:56.481Z,12.83
2019-02-05T12:31:26.292Z,14.50
2019-02-05T12:33:55.777Z,16.73
2019-02-05T12:36:25.305Z,17.97
2019-02-05T12:38:54.975Z,18.17
2019-02-05T12:41:24.555Z,21.07
2019-02-05T12:43:54.254Z,18.23
2019-02-05T12:46:23.752Z,21.47
2019-02-05T12:48:53.238Z,19.57
2019-02-05T12:51:22.780Z,15.77
2019-02-05T12:53:52.273Z,15.60
2019-02-05T12:56:21.914Z,16.20
2019-02-05T12:58:51.832Z,17.90
2019-02-05T13:01:21.278Z,17.53
2019-02-05T13:03:50.764Z,15.50
2019-02-05T13:06:20.166Z,19.13
2019-02-05T13:08:49.626Z,17.40
2019-02-05T13:11:19.172Z,16.53
2019-02-05T13:13:48.958Z,16.00
2019-02-05T13:16:18.366Z,15.10
2019-02-05T13:18:47.867Z,18.30
2019-02-05T13:21:17.349Z,14.17
2019-02-05T13:23:46.828Z,17.13
2019-02-05T13:26:16.372Z,15.53
2019-02-05T13:28:45.860Z,13.57
2019-02-05T13:31:15.294Z,16.17
2019-02-05T13:33:44.681Z,15.10
2019-02-05T13:36:14.255Z,15.13
2019-02-05T13:38:43.663Z,16.67
2019-02-05T13:41:13.355Z,14.53
2019-02-05T13:43:42.778Z,16.90
2019-02-05T13:46:12.339Z,13.73
2019-02-05T13:48:41.802Z,14.37
2019-02-05T13:51:11.294Z,14.40
2019-02-05T13:53:40.783Z,15.13
2019-02-05T13:56:10.563Z,17.20
2019-02-05T13:58:40.045Z,17.70
2019-02-05T14:01:19.589Z,17.87
2019-02-05T14:03:40.945Z,18.27
2019-02-05T14:06:10.355Z,16.80
2019-02-05T14:08:40.124Z,16.60
2019-02-05T14:11:10.089Z,17.80
2019-02-05T14:13:39.511Z,19.07
2019-02-05T14:16:09.331Z,16.90
2019-02-05T14:18:38.745Z,16.27
2019-02-05T14:21:08.323Z,15.87
2019-02-05T14:23:37.813Z,18.53
2019-02-05T14:26:07.673Z,20.27
2019-02-05T14:28:37.215Z,14.47
2019-02-05T14:31:06.971Z,16.40
2019-02-05T14:33:36.625Z,16.57
2019-02-05T14:36:06.794Z,19.80
2019-02-05T14:38:36.291Z,18.17
2019-02-05T14:41:06.453Z,15.00
2019-02-05T14:43:35.863Z,17.70
2019-02-05T14:46:06.093Z,16.50
2019-02-05T14:48:35.675Z,15.93
2019-02-05T14:51:05.651Z,18.73
2019-02-05T14:53:35.167Z,16.20
2019-02-05T14:56:05.312Z,15.00
2019-02-05T14:58:34.806Z,18.10
2019-02-05T15:01:04.814Z,15.13
2019-02-05T15:03:34.286Z,14.27
2019-02-05T15:06:03.764Z,15.87
2019-02-05T15:08:33.231Z,15.53
2019-02-05T15:11:02.689Z,15.47
2019-02-05T15:13:32.134Z,15.20
2019-02-05T15:16:01.554Z,20.70
2019-02-05T15:18:30.991Z,18.20
2019-02-05T15:21:00.418Z,20.00
2019-02-05T15:23:29.847Z,16.47
2019-02-05T15:25:59.263Z,18.37
2019-02-05T15:28:28.787Z,20.67
2019-02-05T15:30:58.222Z,20.50
2019-02-05T15:33:42.579Z,22.60
2019-02-05T15:36:27.253Z,16.80
2019-02-05T15:38:56.782Z,17.03
2019-02-05T15:41:26.242Z,17.90
2019-02-05T15:43:55.772Z,19.10
2019-02-05T15:46:25.427Z,17.17
2019-02-05T15:48:54.959Z,24.60
2019-02-05T15:51:24.593Z,19.83
2019-02-05T15:53:54.147Z,16.20
2019-02-05T15:56:23.947Z,17.07
2019-02-05T15:58:53.432Z,18.03
2019-02-05T16:01:22.921Z,15.93
2019-02-05T16:03:52.507Z,18.53
2019-02-05T16:06:21.981Z,18.20
2019-02-05T16:08:51.547Z,18.13
2019-02-05T16:11:21.184Z,19.77
2019-02-05T16:13:50.741Z,16.90
2019-02-05T16:16:20.183Z,19.80
2019-02-05T16:18:52.679Z,18.93
2019-02-05T16:21:21.662Z,17.50
2019-02-05T16:23:51.084Z,19.13
2019-02-05T16:26:20.486Z,18.97
2019-02-05T16:28:49.905Z,21.73
2019-02-05T16:31:19.417Z,17.87
2019-02-05T16:33:48.845Z,20.83
2019-02-05T16:36:18.328Z,21.13
2019-02-05T16:38:47.799Z,18.97
2019-02-05T16:41:17.282Z,20.93
2019-02-05T16:43:46.699Z,22.63
2019-02-05T16:46:16.144Z,20.37
2019-02-05T16:48:45.562Z,16.77
2019-02-05T16:51:14.992Z,20.53
2019-02-05T16:53:44.476Z,20.77
2019-02-05T16:56:13.917Z,16.70
2019-02-05T16:58:43.378Z,16.73
2019-02-05T17:01:13.004Z,16.23
2019-02-05T17:03:42.546Z,16.93
2019-02-05T17:06:11.984Z,17.03
2019-02-05T17:08:41.496Z,19.37
2019-02-05T17:11:11.074Z,16.57
2019-02-05T17:13:40.529Z,19.77
2019-02-05T17:16:10.007Z,17.93
2019-02-05T17:18:39.478Z,20.67
2019-02-05T17:21:09.078Z,19.43
2019-02-05T17:23:38.510Z,17.97
2019-02-05T17:26:07.914Z,22.90
2019-02-05T17:28:37.345Z,19.50
2019-02-05T17:31:06.806Z,20.90
2019-02-05T17:33:36.271Z,21.53
2019-02-05T17:36:05.896Z,21.60
2019-02-05T17:38:35.350Z,23.13
2019-02-05T17:41:05.711Z,19.23
2019-02-05T17:43:35.301Z,24.63
2019-02-05T17:46:05.933Z,20.67
2019-02-05T17:48:35.643Z,18.03
2019-02-05T17:51:05.263Z,19.43
2019-02-05T17:53:34.659Z,23.33
2019-02-05T17:56:04.420Z,16.00
2019-02-05T17:58:34.067Z,20.37
2019-02-05T18:01:09.446Z,19.10
2019-02-05T18:03:39.219Z,17.90
2019-02-05T18:06:08.911Z,21.37
2019-02-05T18:08:38.459Z,16.93
2019-02-05T18:11:08.116Z,18.73
2019-02-05T18:13:37.512Z,16.67
2019-02-05T18:16:25.213Z,19.33
2019-02-05T18:18:54.919Z,17.93
2019-02-05T18:21:24.428Z,17.80
2019-02-05T18:23:53.849Z,15.33
2019-02-05T18:26:23.444Z,16.77
2019-02-05T18:28:52.845Z,18.73
2019-02-05T18:31:22.396Z,16.63
2019-02-05T18:33:51.818Z,17.47
2019-02-05T18:36:21.250Z,14.47
2019-02-05T18:38:50.668Z,18.00
2019-02-05T18:41:20.170Z,20.03
2019-02-05T18:43:49.846Z,17.57
2019-02-05T18:46:19.254Z,17.50
2019-02-05T18:48:48.682Z,21.17
2019-02-05T18:51:18.174Z,16.77
2019-02-05T18:53:47.581Z,16.70
2019-02-05T18:56:17.106Z,15.77
2019-02-05T18:58:46.503Z,15.60
2019-02-05T19:01:15.987Z,19.47
2019-02-05T19:03:45.425Z,17.67
2019-02-05T19:06:14.867Z,20.63
2019-02-05T19:08:44.292Z,21.73
2019-02-05T19:11:14.045Z,18.37
2019-02-05T19:13:43.793Z,19.40
2019-02-05T19:16:13.262Z,19.17
2019-02-05T19:18:42.752Z,19.70
2019-02-05T19:21:12.436Z,20.30
2019-02-05T19:23:42.089Z,25.73
2019-02-05T19:26:14.876Z,21.37
2019-02-05T19:28:44.802Z,22.63
2019-02-05T19:31:23.672Z,23.10
2019-02-05T19:33:53.083Z,21.03
2019-02-05T19:36:22.487Z,21.43
2019-02-05T19:38:51.889Z,20.93
2019-02-05T19:41:21.363Z,23.77
2019-02-05T19:43:50.769Z,20.83
2019-02-05T19:46:38.325Z,23.17
2019-02-05T19:49:29.483Z,23.33
2019-02-05T19:51:59.289Z,24.63
2019-02-05T19:54:29.345Z,22.43
2019-02-05T19:56:58.897Z,24.50
2019-02-05T19:59:29.036Z,27.00
2019-02-05T20:01:58.545Z,25.60
2019-02-05T20:04:28.094Z,24.63
2019-02-05T20:06:58.979Z,23.73
2019-02-05T20:09:28.494Z,21.03
2019-02-05T20:11:57.990Z,23.73
2019-02-05T20:14:27.412Z,25.07
2019-02-05T20:16:56.934Z,23.23
2019-02-05T20:19:26.647Z,23.97
2019-02-05T20:21:56.059Z,24.30
2019-02-05T20:24:25.459Z,24.80
2019-02-05T20:26:54.949Z,21.77
2019-02-05T20:29:24.472Z,27.53
2019-02-05T20:31:53.874Z,28.93
2019-02-05T20:34:23.782Z,22.57
2019-02-05T20:36:53.270Z,21.87
2019-02-05T20:39:22.808Z,21.87
2019-02-05T20:41:52.790Z,28.70
2019-02-05T20:44:22.622Z,23.27
2019-02-05T20:46:52.034Z,20.77
2019-02-05T20:49:21.460Z,24.27
2019-02-05T20:51:51.151Z,24.57
2019-02-05T20:54:20.575Z,23.27
2019-02-05T20:56:50.062Z,22.43
2019-02-05T20:59:19.542Z,25.87
2019-02-05T21:01:49.030Z,25.77
2019-02-05T21:04:18.447Z,24.50
2019-02-05T21:06:48.388Z,23.93
2019-02-05T21:09:21.905Z,24.83
2019-02-05T21:11:51.391Z,25.13
2019-02-05T21:14:20.867Z,27.03
2019-02-05T21:16:50.448Z,23.33
2019-02-05T21:19:20.312Z,25.50
2019-02-05T21:21:50.207Z,23.40
2019-02-05T21:24:19.800Z,29.00
2019-02-05T21:26:49.242Z,25.43
2019-02-05T21:29:18.787Z,25.50
2019-02-05T21:31:48.201Z,25.97
2019-02-05T21:34:17.621Z,23.40
2019-02-05T21:36:47.209Z,29.27
2019-02-05T21:39:16.871Z,24.10
2019-02-05T21:41:46.326Z,22.53
2019-02-05T21:44:15.745Z,25.80
2019-02-05T21:46:45.223Z,23.03
2019-02-05T21:49:14.719Z,24.67
2019-02-05T21:51:44.150Z,24.83
2019-02-05T21:54:13.579Z,20.20
2019-02-05T21:56:43.075Z,26.27
2019-02-05T21:59:12.635Z,23.87
2019-02-05T22:01:42.198Z,25.80
2019-02-05T22:04:11.899Z,22.10
2019-02-05T22:06:41.472Z,26.00
2019-02-05T22:09:14.331Z,25.43
2019-02-05T22:11:44.532Z,22.63
2019-02-05T22:14:14.070Z,22.47
2019-02-05T22:16:43.555Z,21.83
2019-02-05T22:19:13.318Z,23.17
2019-02-05T22:21:42.858Z,22.90
2019-02-05T22:24:12.328Z,21.57
2019-02-05T22:26:41.815Z,24.00
2019-02-05T22:29:11.451Z,28.13
2019-02-05T22:31:40.942Z,25.93
2019-02-05T22:34:10.735Z,29.13
2019-02-05T22:36:40.715Z,24.90
2019-02-05T22:39:10.713Z,24.60
2019-02-05T22:41:40.223Z,24.27
2019-02-05T22:44:09.711Z,22.73
2019-02-05T22:46:39.605Z,25.87
2019-02-05T22:49:09.081Z,24.27
2019-02-05T22:51:38.706Z,23.80
2019-02-05T22:54:08.352Z,24.93
2019-02-05T22:56:37.835Z,26.97
2019-02-05T22:59:07.617Z,24.57
2019-02-05T23:01:50.539Z,23.80
2019-02-05T23:04:56.860Z,25.10
2019-02-05T23:07:28.106Z,22.43
2019-02-05T23:10:32.899Z,24.20
2019-02-05T23:13:09.079Z,22.53
2019-02-05T23:15:44.193Z,25.43
2019-02-05T23:18:14.758Z,20.80
2019-02-05T23:20:44.291Z,24.27
2019-02-05T23:23:13.932Z,25.70
2019-02-05T23:25:43.453Z,24.00
2019-02-05T23:28:12.998Z,24.73
2019-02-05T23:30:42.957Z,24.73
2019-02-05T23:33:12.729Z,24.10
2019-02-05T23:35:42.195Z,24.60
2019-02-05T23:38:14.050Z,25.30
2019-02-05T23:40:43.539Z,24.77
2019-02-05T23:43:12.982Z,23.43
2019-02-05T23:45:42.411Z,22.03
2019-02-05T23:48:12.000Z,21.30
2019-02-05T23:50:41.406Z,25.93
2019-02-05T23:53:10.951Z,22.50
2019-02-05T23:55:40.419Z,20.53
2019-02-05T23:58:09.898Z,23.53
